Terminal Aerodrome Forecast
Issued by NWS

Home | Current Version | Previous Version | Text Only | Print | Product List | Glossary On
Versions: 1 2 3 4 5 6 7 8 9 10 11 12 13 14 15 16 17 18 19 20 21
000
FTUS41 KBGM 210500
TAFITH
TAF
KITH 210538Z 2106/2206 16005KT P6SM SCT015 OVC040
      TEMPO 2106/2109 3SM BR OVC015
     FM210900 16005KT 2SM BR OVC008
     FM211500 22005KT P6SM BKN022
     FM211800 22007KT 5SM SHRA BR BKN022 OVC035
     FM220000 VRB03KT 4SM BR BKN022=

USA.gov is the U.S. government's official web portal to all federal, state and local government web resources and services.